Etusivu
METAR-TAF:

METAR-TAF

Lentoasemat :

Schleswig-Jagel, Saksa

Leveyspiiri: 54-28N, Pituuspiiri: 009-31E, korkeus merenpinnasta: 22 m

Tämänhetkinen sää

Tämä raportti tehtiin 53 minuuttia sitten, kello 07.20 UTC
Tuuli 11 kn etelästä/lounaasta
Lämpötila 16°C
Kosteus 77%
Ilmanpaine 1010 hPa

METAR: ETNS 140720Z AUTO 20011KT //// // ////// 16/12 Q1010 ///

Aika: 10:13 (08:13 UTC)


TAF: puuttuu

Säähavainnot ja -ennusteet yli 4000 lentoasemalta (METAR- ja TAF-raportit).

Käytössä olevat sääasemat on merkitty karttaan keltaisilla ja punaisilla pisteillä.

Aseta hiiri pisteen päälle nähdäksesi sääaseman nimen.

Klikkaa sitten nähdäksesi säähavainnot ja -ennusteet.

Kartan vaihtaminen: klikkaa mustalla rastilla varustettuja vihreitä pisteitä, niin voit zoomata sisään; viivalla varustettua vihreää pistettä, niin voit zoomata ulos tai vihreitä nuolia, niin pääset viereisille kartoille.


METAR-TAF: